Alvordton, Ohio
Current Conditions -  °F | °C
As of 1:55 PM on Friday 31 Oct 2014 (Local Time) from KUSE Reporting Station
Light Rain Light Rain  
Wind Chill:   Ceiling: 1700
Heat Index:   Visibility: 6mi
Dew Point:   Wind: 12mph
Humidity: 87%   Direction: 340°NNW
Pressure: 29.89"   Gusts: NA
Location:  41.67°N, 84.44°W
Report Text: KUSE 311755Z AUTO 34010KT 6SM -RA BKN017 OVC023 06/04 A2989 RMK AO2
Loading
Personal Weather Stations






























Interactive Weather Map
Tropical Storm Tracking
New forecast layout! Learn more

10-Day Weather Forecast

Advertisements
Track Severe Weather on mobile